createdAt,value
2022-09-17T00:01:04.579Z,1.93
2022-09-17T00:03:33.795Z,1.97
2022-09-17T00:06:02.511Z,2.67
2022-09-17T00:08:31.153Z,3.13
2022-09-17T00:11:00.700Z,2.73
2022-09-17T00:13:29.056Z,2.13
2022-09-17T00:15:57.395Z,1.90
2022-09-17T00:18:25.731Z,2.13
2022-09-17T00:20:54.007Z,1.40
2022-09-17T00:23:22.271Z,1.93
2022-09-17T00:25:50.573Z,2.50
2022-09-17T00:28:20.188Z,1.57
2022-09-17T00:30:48.691Z,1.47
2022-09-17T00:33:18.460Z,1.93
2022-09-17T00:35:46.723Z,1.87
2022-09-17T00:38:15.060Z,2.40
2022-09-17T00:40:43.365Z,2.30
2022-09-17T00:43:13.193Z,2.70
2022-09-17T00:45:42.914Z,2.23
2022-09-17T00:48:12.375Z,1.50
2022-09-17T00:50:41.872Z,1.90
2022-09-17T00:53:12.599Z,2.73
2022-09-17T00:55:42.003Z,2.30
2022-09-17T00:58:12.201Z,2.77
2022-09-17T01:00:40.599Z,1.90
2022-09-17T01:03:10.310Z,1.33
2022-09-17T01:05:40.781Z,1.50
2022-09-17T01:08:15.156Z,1.90
2022-09-17T01:10:55.715Z,1.37
2022-09-17T01:13:29.890Z,1.57
2022-09-17T01:16:01.622Z,2.10
2022-09-17T01:18:35.699Z,2.33
2022-09-17T01:21:21.880Z,2.77
2022-09-17T01:24:02.929Z,3.17
2022-09-17T01:26:40.406Z,2.07
2022-09-17T01:29:15.540Z,1.70
2022-09-17T01:31:50.422Z,2.47
2022-09-17T01:34:22.015Z,1.80
2022-09-17T01:36:53.016Z,1.43
2022-09-17T01:39:28.538Z,1.37
2022-09-17T01:42:00.636Z,2.03
2022-09-17T01:44:31.512Z,2.43
2022-09-17T01:47:04.686Z,5.13
2022-09-17T01:49:33.777Z,2.60
2022-09-17T01:52:02.680Z,2.53
2022-09-17T01:54:32.945Z,1.97
2022-09-17T01:57:03.614Z,1.53
2022-09-17T01:59:34.315Z,2.33
2022-09-17T02:02:08.523Z,2.10
2022-09-17T02:04:38.772Z,2.17
2022-09-17T02:07:10.059Z,1.93
2022-09-17T02:09:40.244Z,2.47
2022-09-17T02:12:13.135Z,2.53
2022-09-17T02:14:44.177Z,2.67
2022-09-17T02:17:17.796Z,2.47
2022-09-17T02:19:46.723Z,3.37
2022-09-17T02:22:25.201Z,3.13
2022-09-17T02:24:59.334Z,1.20
2022-09-17T02:27:39.016Z,1.40
2022-09-17T02:30:08.080Z,2.97
2022-09-17T02:32:38.096Z,1.87
2022-09-17T02:35:07.595Z,1.07
2022-09-17T02:37:35.886Z,1.77
2022-09-17T02:40:04.953Z,2.33
2022-09-17T02:42:37.954Z,1.87
2022-09-17T02:45:09.140Z,4.10
2022-09-17T02:47:53.956Z,2.00
2022-09-17T02:50:32.563Z,2.33
2022-09-17T02:53:08.075Z,2.50
2022-09-17T02:55:39.777Z,3.73
2022-09-17T02:58:13.725Z,1.40
2022-09-17T03:00:43.073Z,1.33
2022-09-17T03:03:14.757Z,1.47
2022-09-17T03:05:44.197Z,1.30
2022-09-17T03:08:14.981Z,1.63
2022-09-17T03:10:43.341Z,1.87
2022-09-17T03:13:11.638Z,2.10
2022-09-17T03:15:39.944Z,1.93
2022-09-17T03:18:08.330Z,1.80
2022-09-17T03:20:38.249Z,1.83
2022-09-17T03:23:06.734Z,1.30
2022-09-17T03:25:35.100Z,1.30
2022-09-17T03:28:03.601Z,1.23
2022-09-17T03:30:31.961Z,1.60
2022-09-17T03:33:00.204Z,1.70
2022-09-17T03:35:28.560Z,1.30
2022-09-17T03:37:58.220Z,1.57
2022-09-17T03:40:26.560Z,1.20
2022-09-17T03:42:54.931Z,1.73
2022-09-17T03:45:23.310Z,1.30
2022-09-17T03:47:51.616Z,2.07
2022-09-17T03:50:19.855Z,2.00
2022-09-17T03:52:48.135Z,2.03
2022-09-17T03:55:18.243Z,1.70
2022-09-17T03:57:46.511Z,2.27
2022-09-17T04:00:17.417Z,2.03
2022-09-17T04:02:46.044Z,0.87
2022-09-17T04:05:14.380Z,0.93
2022-09-17T04:07:42.659Z,1.53
2022-09-17T04:10:11.071Z,0.87
2022-09-17T04:12:41.147Z,1.73
2022-09-17T04:15:10.833Z,0.90
2022-09-17T04:17:39.119Z,1.03
2022-09-17T04:20:07.974Z,1.80
2022-09-17T04:22:36.464Z,0.80
2022-09-17T04:25:04.713Z,1.63
2022-09-17T04:27:33.012Z,0.73
2022-09-17T04:30:02.668Z,0.93
2022-09-17T04:32:30.942Z,1.83
2022-09-17T04:34:59.267Z,0.90
2022-09-17T04:37:27.550Z,1.00
2022-09-17T04:39:55.855Z,1.37
2022-09-17T04:42:24.437Z,3.60
2022-09-17T04:44:52.696Z,3.93
2022-09-17T04:47:22.486Z,1.90
2022-09-17T04:49:50.838Z,2.40
2022-09-17T04:52:19.234Z,2.03
2022-09-17T04:54:47.564Z,2.87
2022-09-17T04:57:15.861Z,2.63
2022-09-17T04:59:44.172Z,2.37
2022-09-17T05:02:12.537Z,2.67
2022-09-17T05:04:42.283Z,1.80
2022-09-17T05:07:13.342Z,2.40
2022-09-17T05:09:42.880Z,2.80
2022-09-17T05:12:11.236Z,4.30
2022-09-17T05:14:39.553Z,0.50
2022-09-17T05:17:07.932Z,0.40
2022-09-17T05:19:36.261Z,0.40
2022-09-17T05:22:05.923Z,0.50
2022-09-17T05:24:37.436Z,0.50
2022-09-17T05:27:05.690Z,0.50
2022-09-17T05:29:34.077Z,0.50
2022-09-17T05:32:02.374Z,0.50
2022-09-17T05:34:30.679Z,0.47
2022-09-17T05:36:59.150Z,0.50
2022-09-17T05:39:29.086Z,0.50
2022-09-17T05:41:57.478Z,0.50
2022-09-17T05:44:25.957Z,0.40
2022-09-17T05:46:54.833Z,0.50
2022-09-17T05:49:23.172Z,0.40
2022-09-17T05:51:52.121Z,0.40
2022-09-17T05:54:20.654Z,0.50
2022-09-17T05:56:50.455Z,0.50
2022-09-17T05:59:18.913Z,0.50
2022-09-17T06:01:47.396Z,0.50
2022-09-17T06:04:15.807Z,0.40
2022-09-17T06:06:44.142Z,0.40
2022-09-17T06:09:12.912Z,0.40
2022-09-17T06:11:41.234Z,0.50
2022-09-17T06:14:11.653Z,0.50
2022-09-17T06:16:40.027Z,0.40
2022-09-17T06:19:08.542Z,0.40
2022-09-17T06:21:36.851Z,0.40
2022-09-17T06:24:05.451Z,0.40
2022-09-17T06:26:33.741Z,0.40
2022-09-17T06:29:02.147Z,0.40
2022-09-17T06:31:31.836Z,0.40
2022-09-17T06:34:01.721Z,0.40
2022-09-17T06:36:30.207Z,0.40
2022-09-17T06:38:58.680Z,0.40
2022-09-17T06:41:27.262Z,0.40
2022-09-17T06:43:55.541Z,0.40
2022-09-17T06:46:23.941Z,0.40
2022-09-17T06:48:53.677Z,0.40
2022-09-17T06:51:22.687Z,0.50
2022-09-17T06:53:51.069Z,0.40
2022-09-17T06:56:19.355Z,0.40
2022-09-17T06:58:47.661Z,0.40
2022-09-17T07:01:15.966Z,0.50
2022-09-17T07:03:44.752Z,0.40
2022-09-17T07:06:14.501Z,0.40
2022-09-17T07:08:42.984Z,0.40
2022-09-17T07:11:11.365Z,0.40
2022-09-17T07:13:39.683Z,1.33
2022-09-17T07:16:08.282Z,0.50
2022-09-17T07:18:37.039Z,1.43
2022-09-17T07:21:06.594Z,1.20
2022-09-17T07:23:37.444Z,1.10
2022-09-17T07:26:07.563Z,1.37
2022-09-17T07:28:36.119Z,1.60
2022-09-17T07:31:06.369Z,1.80
2022-09-17T07:33:36.016Z,1.00
2022-09-17T07:36:05.505Z,1.20
2022-09-17T07:38:34.116Z,1.03
2022-09-17T07:41:05.149Z,1.80
2022-09-17T07:43:34.815Z,1.57
2022-09-17T07:46:04.047Z,2.60
2022-09-17T07:48:32.872Z,0.97
2022-09-17T07:51:02.368Z,0.87
2022-09-17T07:53:30.718Z,1.10
2022-09-17T07:56:00.244Z,0.97
2022-09-17T07:58:31.937Z,1.50
2022-09-17T08:01:03.559Z,0.70
2022-09-17T08:03:31.874Z,0.93
2022-09-17T08:06:05.060Z,0.53
2022-09-17T08:08:34.118Z,1.20
2022-09-17T08:11:03.063Z,0.60
2022-09-17T08:13:32.852Z,1.10
2022-09-17T08:16:01.918Z,2.30
2022-09-17T08:18:30.927Z,2.10
2022-09-17T08:20:59.712Z,0.50
2022-09-17T08:23:28.605Z,0.50
2022-09-17T08:25:56.966Z,0.50
2022-09-17T08:28:26.111Z,0.50
2022-09-17T08:30:55.980Z,0.50
2022-09-17T08:33:24.330Z,0.50
2022-09-17T08:35:53.405Z,0.50
2022-09-17T08:38:22.161Z,0.50
2022-09-17T08:40:57.470Z,0.50
2022-09-17T08:43:26.772Z,0.50
2022-09-17T08:45:57.316Z,0.50
2022-09-17T08:48:27.228Z,0.50
2022-09-17T08:51:01.661Z,0.40
2022-09-17T08:53:38.530Z,0.50
2022-09-17T08:56:12.228Z,0.50
2022-09-17T08:58:52.643Z,0.40
2022-09-17T09:01:35.101Z,0.40
2022-09-17T09:04:13.123Z,0.40
2022-09-17T09:06:44.407Z,0.40
2022-09-17T09:09:14.008Z,0.50
2022-09-17T09:11:43.618Z,0.47
2022-09-17T09:14:15.979Z,0.50
2022-09-17T09:16:46.341Z,0.47
2022-09-17T09:19:19.442Z,0.50
2022-09-17T09:21:50.270Z,0.40
2022-09-17T09:24:20.700Z,0.50
2022-09-17T09:26:49.417Z,0.40
2022-09-17T09:29:23.665Z,0.50
2022-09-17T09:32:15.197Z,0.50
2022-09-17T09:34:44.509Z,0.50
2022-09-17T09:37:15.468Z,0.40
2022-09-17T09:39:46.277Z,0.40
2022-09-17T09:42:17.799Z,0.40
2022-09-17T09:44:46.255Z,0.47
2022-09-17T09:47:22.852Z,0.40
2022-09-17T09:49:58.608Z,0.40
2022-09-17T09:52:36.000Z,0.40
2022-09-17T09:55:16.704Z,0.53
2022-09-17T09:57:46.394Z,0.40
2022-09-17T10:00:24.099Z,0.40
2022-09-17T10:02:55.772Z,1.23
2022-09-17T10:05:24.235Z,2.23
2022-09-17T10:07:52.646Z,1.70
2022-09-17T10:10:21.094Z,2.10
2022-09-17T10:12:49.457Z,2.50
2022-09-17T10:15:25.636Z,1.70
2022-09-17T10:18:12.525Z,1.83
2022-09-17T10:20:50.521Z,1.60
2022-09-17T10:23:19.179Z,1.77
2022-09-17T10:25:47.664Z,3.37
2022-09-17T10:28:26.274Z,1.40
2022-09-17T10:30:58.289Z,1.23
2022-09-17T10:33:29.102Z,1.20
2022-09-17T10:36:02.441Z,1.47
2022-09-17T10:38:32.636Z,1.77
2022-09-17T10:41:11.535Z,2.10
2022-09-17T10:43:39.921Z,1.83
2022-09-17T10:46:10.101Z,2.40
2022-09-17T10:48:43.872Z,1.57
2022-09-17T10:51:12.918Z,2.30
2022-09-17T10:53:58.875Z,1.70
2022-09-17T10:56:31.194Z,1.93
2022-09-17T10:59:06.066Z,1.80
2022-09-17T11:01:38.252Z,2.47
2022-09-17T11:04:17.187Z,1.47
2022-09-17T11:06:55.948Z,1.90
2022-09-17T11:09:28.963Z,2.07
2022-09-17T11:12:03.258Z,2.20
2022-09-17T11:14:39.217Z,1.43
2022-09-17T11:17:12.845Z,0.40
2022-09-17T11:19:47.640Z,0.40
2022-09-17T11:22:23.161Z,0.40
2022-09-17T11:25:06.575Z,0.40
2022-09-17T11:27:47.741Z,0.40
2022-09-17T11:30:20.757Z,0.50
2022-09-17T11:33:01.270Z,0.40
2022-09-17T11:35:33.153Z,0.40
2022-09-17T11:38:03.972Z,0.43
2022-09-17T11:40:37.919Z,0.50
2022-09-17T11:43:09.408Z,0.40
2022-09-17T11:45:39.874Z,0.40
2022-09-17T11:48:12.472Z,2.17
2022-09-17T11:50:45.727Z,2.27
2022-09-17T11:53:17.336Z,1.97
2022-09-17T11:55:48.243Z,1.50
2022-09-17T11:58:18.496Z,2.37
2022-09-17T12:00:49.784Z,2.87
2022-09-17T12:03:20.145Z,1.77
2022-09-17T12:05:51.433Z,1.70
2022-09-17T12:08:21.315Z,2.93
2022-09-17T12:10:51.436Z,1.97
2022-09-17T12:13:22.122Z,1.93
2022-09-17T12:15:53.720Z,1.67
2022-09-17T12:18:33.291Z,1.70
2022-09-17T12:21:04.749Z,1.23
2022-09-17T12:23:35.696Z,1.50
2022-09-17T12:26:09.197Z,1.30
2022-09-17T12:28:41.381Z,1.00
2022-09-17T12:31:13.603Z,1.93
2022-09-17T12:33:45.004Z,1.20
2022-09-17T12:36:20.841Z,1.83
2022-09-17T12:39:08.079Z,0.97
2022-09-17T12:41:42.920Z,1.30
2022-09-17T12:44:20.704Z,1.00
2022-09-17T12:46:57.962Z,1.13
2022-09-17T12:49:36.318Z,1.20
2022-09-17T12:52:09.571Z,2.37
2022-09-17T12:54:52.977Z,2.13
2022-09-17T12:57:27.378Z,2.00
2022-09-17T13:00:03.971Z,1.27
2022-09-17T13:02:40.164Z,1.73
2022-09-17T13:05:23.392Z,1.63
2022-09-17T13:08:09.323Z,1.70
2022-09-17T13:10:53.214Z,1.40
2022-09-17T13:13:30.355Z,1.87
2022-09-17T13:16:04.930Z,1.40
2022-09-17T13:18:41.709Z,2.83
2022-09-17T13:21:20.109Z,1.67
2022-09-17T13:23:49.602Z,1.33
2022-09-17T13:26:20.148Z,2.00
2022-09-17T13:28:49.130Z,1.67
2022-09-17T13:31:24.353Z,2.03
2022-09-17T13:33:57.006Z,1.20
2022-09-17T13:36:52.149Z,2.37
2022-09-17T13:39:35.084Z,1.90
2022-09-17T13:42:08.094Z,1.70
2022-09-17T13:44:37.063Z,2.33
2022-09-17T13:47:26.373Z,2.20
2022-09-17T13:49:56.849Z,2.10
2022-09-17T13:52:35.784Z,1.17
2022-09-17T13:55:04.357Z,1.73
2022-09-17T13:57:35.334Z,2.17
2022-09-17T14:00:03.919Z,1.70
2022-09-17T14:02:41.206Z,1.60
2022-09-17T14:05:33.511Z,1.50
2022-09-17T14:08:15.248Z,1.30
2022-09-17T14:10:45.013Z,1.50
2022-09-17T14:13:28.232Z,1.90
2022-09-17T14:16:05.374Z,2.23
2022-09-17T14:18:43.955Z,1.53
2022-09-17T14:21:17.436Z,1.97
2022-09-17T14:23:46.634Z,3.20
2022-09-17T14:26:19.668Z,1.70
2022-09-17T14:28:54.286Z,1.60
2022-09-17T14:31:24.702Z,1.80
2022-09-17T14:33:53.072Z,1.40
2022-09-17T14:36:23.076Z,1.77
2022-09-17T14:38:53.059Z,2.53
2022-09-17T14:41:23.204Z,1.63
2022-09-17T14:43:54.414Z,1.77
2022-09-17T14:46:23.872Z,2.07
2022-09-17T14:48:52.380Z,3.33
2022-09-17T14:51:29.042Z,2.13
2022-09-17T14:54:12.455Z,1.30
2022-09-17T14:56:45.591Z,0.80
2022-09-17T14:59:21.159Z,1.83
2022-09-17T15:01:50.192Z,1.53
2022-09-17T15:04:22.903Z,0.73
2022-09-17T15:06:51.589Z,1.60
2022-09-17T15:09:20.988Z,1.67
2022-09-17T15:11:49.543Z,1.43
2022-09-17T15:14:22.147Z,0.90
2022-09-17T15:16:51.505Z,2.33
2022-09-17T15:19:23.715Z,0.77
2022-09-17T15:21:55.116Z,1.43
2022-09-17T15:24:28.122Z,0.90
2022-09-17T15:26:59.049Z,1.07
2022-09-17T15:29:30.965Z,1.73
2022-09-17T15:31:59.282Z,1.23
2022-09-17T15:34:27.617Z,1.90
2022-09-17T15:37:06.459Z,1.70
2022-09-17T15:39:40.685Z,0.63
2022-09-17T15:42:18.857Z,0.50
2022-09-17T15:44:48.498Z,0.40
2022-09-17T15:47:35.252Z,0.40
2022-09-17T15:50:14.655Z,0.40
2022-09-17T15:52:43.532Z,0.50
2022-09-17T15:55:30.621Z,0.50
2022-09-17T15:57:59.639Z,0.50
2022-09-17T16:00:29.648Z,6.50
2022-09-17T16:02:58.013Z,0.50
2022-09-17T16:05:54.301Z,0.50
2022-09-17T16:08:25.401Z,0.50
2022-09-17T16:10:53.929Z,0.50
2022-09-17T16:13:26.449Z,0.50
2022-09-17T16:15:58.400Z,0.50
2022-09-17T16:18:27.625Z,0.50
2022-09-17T16:20:55.917Z,0.50
2022-09-17T16:23:24.840Z,0.50
2022-09-17T16:25:53.685Z,0.50
2022-09-17T16:28:22.033Z,0.50
2022-09-17T16:30:51.044Z,0.50
2022-09-17T16:33:20.787Z,0.50
2022-09-17T16:35:49.082Z,0.47
2022-09-17T16:38:17.543Z,0.50
2022-09-17T16:40:47.710Z,0.50
2022-09-17T16:43:16.176Z,0.50
2022-09-17T16:45:44.461Z,0.50
2022-09-17T16:48:12.789Z,1.60
2022-09-17T16:50:42.968Z,0.50
2022-09-17T16:53:11.396Z,0.40
2022-09-17T16:55:40.586Z,0.50
2022-09-17T16:58:08.890Z,0.50
2022-09-17T17:00:38.025Z,0.50
2022-09-17T17:03:06.815Z,0.50
2022-09-17T17:05:37.998Z,0.50
2022-09-17T17:08:07.924Z,0.50
2022-09-17T17:10:36.508Z,0.50
2022-09-17T17:13:04.849Z,0.50
2022-09-17T17:15:33.545Z,0.50
2022-09-17T17:18:01.891Z,0.50
2022-09-17T17:20:31.971Z,0.50
2022-09-17T17:23:00.324Z,0.50
2022-09-17T17:25:32.255Z,0.50
2022-09-17T17:28:00.630Z,0.50
2022-09-17T17:30:32.969Z,0.50
2022-09-17T17:33:04.035Z,0.50
2022-09-17T17:35:32.528Z,0.50
2022-09-17T17:38:00.887Z,0.50
2022-09-17T17:40:30.593Z,0.50
2022-09-17T17:42:58.957Z,0.50
2022-09-17T17:45:27.270Z,0.50
2022-09-17T17:47:55.620Z,0.50
2022-09-17T17:50:23.932Z,0.50
2022-09-17T17:52:52.233Z,1.17
2022-09-17T17:55:20.697Z,0.50
2022-09-17T17:57:50.303Z,0.50
2022-09-17T18:00:18.628Z,0.50
2022-09-17T18:02:47.041Z,0.50
2022-09-17T18:05:15.464Z,0.50
2022-09-17T18:07:43.740Z,0.50
2022-09-17T18:10:13.090Z,0.50
2022-09-17T18:12:41.694Z,0.50
2022-09-17T18:15:11.799Z,0.50
2022-09-17T18:17:40.098Z,0.50
2022-09-17T18:20:09.380Z,0.50
2022-09-17T18:22:37.687Z,0.53
2022-09-17T18:25:06.210Z,0.57
2022-09-17T18:27:34.484Z,0.50
2022-09-17T18:30:02.789Z,0.50
2022-09-17T18:32:32.497Z,0.50
2022-09-17T18:35:00.780Z,0.50
2022-09-17T18:37:30.316Z,0.60
2022-09-17T18:39:59.553Z,0.60
2022-09-17T18:42:28.219Z,0.50
2022-09-17T18:44:56.526Z,0.50
2022-09-17T18:47:24.911Z,0.50
2022-09-17T18:49:54.653Z,0.50
2022-09-17T18:52:25.788Z,0.50
2022-09-17T18:54:54.162Z,0.60
2022-09-17T18:57:22.549Z,0.50
2022-09-17T18:59:50.928Z,0.60
2022-09-17T19:02:19.363Z,0.50
2022-09-17T19:04:47.777Z,0.50
2022-09-17T19:07:17.576Z,0.50
2022-09-17T19:09:45.895Z,0.50
2022-09-17T19:12:14.171Z,0.50
2022-09-17T19:14:42.436Z,0.50
2022-09-17T19:17:10.768Z,0.47
2022-09-17T19:19:39.099Z,0.50
2022-09-17T19:22:08.243Z,0.50
2022-09-17T19:24:38.545Z,0.50
2022-09-17T19:27:07.574Z,0.50
2022-09-17T19:29:35.945Z,0.50
2022-09-17T19:32:04.276Z,0.60
2022-09-17T19:34:32.499Z,0.50
2022-09-17T19:37:00.868Z,0.50
2022-09-17T19:39:29.216Z,0.50
2022-09-17T19:41:58.885Z,0.50
2022-09-17T19:44:27.216Z,0.50
2022-09-17T19:46:55.943Z,0.43
2022-09-17T19:49:24.371Z,0.50
2022-09-17T19:51:55.626Z,0.50
2022-09-17T19:54:26.912Z,0.50
2022-09-17T19:56:55.241Z,0.40
2022-09-17T19:59:26.860Z,0.50
2022-09-17T20:01:55.289Z,0.50
2022-09-17T20:04:24.573Z,0.50
2022-09-17T20:06:52.906Z,0.50
2022-09-17T20:09:21.269Z,0.50
2022-09-17T20:11:49.659Z,0.50
2022-09-17T20:14:18.210Z,0.50
2022-09-17T20:16:48.246Z,0.50
2022-09-17T20:19:17.389Z,0.50
2022-09-17T20:21:45.739Z,0.50
2022-09-17T20:24:14.172Z,0.50
2022-09-17T20:26:42.771Z,0.50
2022-09-17T20:29:11.131Z,0.50
2022-09-17T20:31:39.610Z,0.50
2022-09-17T20:34:09.396Z,0.50
2022-09-17T20:36:37.847Z,0.50
2022-09-17T20:39:20.994Z,0.50
2022-09-17T20:41:51.434Z,0.50
2022-09-17T20:44:20.686Z,0.50
2022-09-17T20:46:49.173Z,0.50
2022-09-17T20:49:18.851Z,0.50
2022-09-17T20:51:47.303Z,0.50
2022-09-17T20:54:15.677Z,0.50
2022-09-17T20:56:44.130Z,0.50
2022-09-17T20:59:15.000Z,0.50
2022-09-17T21:01:44.799Z,0.40
2022-09-17T21:04:14.758Z,0.50
2022-09-17T21:06:44.840Z,0.50
2022-09-17T21:09:15.888Z,0.50
2022-09-17T21:11:44.686Z,0.40
2022-09-17T21:14:15.230Z,0.40
2022-09-17T21:16:43.552Z,0.50
2022-09-17T21:19:13.411Z,0.50
2022-09-17T21:21:41.720Z,0.50
2022-09-17T21:24:11.632Z,0.50
2022-09-17T21:26:39.915Z,0.50
2022-09-17T21:29:08.270Z,0.40
2022-09-17T21:31:37.095Z,0.50
2022-09-17T21:34:06.380Z,0.50
2022-09-17T21:36:35.692Z,0.50
2022-09-17T21:39:05.092Z,0.50
2022-09-17T21:41:38.646Z,0.40
2022-09-17T21:44:09.988Z,0.50
2022-09-17T21:46:38.727Z,0.40
2022-09-17T21:49:07.307Z,0.40
2022-09-17T21:51:37.204Z,0.40
2022-09-17T21:54:06.765Z,0.40
2022-09-17T21:56:36.692Z,0.40
2022-09-17T21:59:06.794Z,0.40
2022-09-17T22:01:40.010Z,0.50
2022-09-17T22:04:09.166Z,0.40
2022-09-17T22:06:37.971Z,0.40
2022-09-17T22:09:07.372Z,0.40
2022-09-17T22:11:37.912Z,0.50
2022-09-17T22:14:09.100Z,0.50
2022-09-17T22:16:38.672Z,3.40
2022-09-17T22:19:07.854Z,0.50
2022-09-17T22:21:37.895Z,0.40
2022-09-17T22:24:07.589Z,0.40
2022-09-17T22:26:38.274Z,0.40
2022-09-17T22:29:07.433Z,0.50
2022-09-17T22:31:36.050Z,0.50
2022-09-17T22:34:04.590Z,0.50
2022-09-17T22:36:32.997Z,0.50
2022-09-17T22:39:01.395Z,0.40
2022-09-17T22:41:32.708Z,0.40
2022-09-17T22:44:03.055Z,0.50
2022-09-17T22:46:32.186Z,0.50
2022-09-17T22:49:00.629Z,0.40
2022-09-17T22:51:29.751Z,0.40
2022-09-17T22:53:58.726Z,0.50
2022-09-17T22:56:28.088Z,0.50
2022-09-17T22:58:57.558Z,0.50
2022-09-17T23:01:29.742Z,0.50
2022-09-17T23:03:58.591Z,0.40
2022-09-17T23:06:27.515Z,0.40
2022-09-17T23:08:56.072Z,0.50
2022-09-17T23:11:26.598Z,0.50
2022-09-17T23:13:57.528Z,0.47
2022-09-17T23:16:27.359Z,0.50
2022-09-17T23:18:55.796Z,0.50
2022-09-17T23:21:24.164Z,0.47
2022-09-17T23:23:52.852Z,0.50
2022-09-17T23:26:22.709Z,0.40
2022-09-17T23:28:51.252Z,0.47
2022-09-17T23:31:20.559Z,0.50
2022-09-17T23:33:52.187Z,0.50
2022-09-17T23:36:21.663Z,0.50
2022-09-17T23:38:50.440Z,0.50
2022-09-17T23:41:19.877Z,3.80
2022-09-17T23:43:48.937Z,0.50
2022-09-17T23:46:17.447Z,0.50
2022-09-17T23:48:46.718Z,0.50
2022-09-17T23:51:17.454Z,0.50
2022-09-17T23:53:45.824Z,0.40
2022-09-17T23:56:15.019Z,0.50
2022-09-17T23:58:43.637Z,0.50
